sensor_id;sensor_type;location;lat;lon;timestamp;P1;durP1;ratioP1;P2;durP2;ratioP2
3068;SDS011;1545;51.728;8.796;2022-07-29T00:00:10;8.33;;;3.20;;
3068;SDS011;1545;51.728;8.796;2022-07-29T00:02:35;7.60;;;3.00;;
3068;SDS011;1545;51.728;8.796;2022-07-29T00:05:02;12.90;;;2.93;;
3068;SDS011;1545;51.728;8.796;2022-07-29T00:07:28;15.03;;;3.17;;
3068;SDS011;1545;51.728;8.796;2022-07-29T00:09:54;12.80;;;3.37;;
3068;SDS011;1545;51.728;8.796;2022-07-29T00:12:20;8.10;;;2.53;;
3068;SDS011;1545;51.728;8.796;2022-07-29T00:14:46;8.00;;;2.67;;
3068;SDS011;1545;51.728;8.796;2022-07-29T00:17:12;9.57;;;2.93;;
3068;SDS011;1545;51.728;8.796;2022-07-29T00:19:37;7.43;;;2.73;;
3068;SDS011;1545;51.728;8.796;2022-07-29T00:22:03;7.13;;;3.20;;
3068;SDS011;1545;51.728;8.796;2022-07-29T00:24:28;13.00;;;2.97;;
3068;SDS011;1545;51.728;8.796;2022-07-29T00:26:54;13.33;;;3.50;;
3068;SDS011;1545;51.728;8.796;2022-07-29T00:29:20;5.47;;;3.10;;
3068;SDS011;1545;51.728;8.796;2022-07-29T00:31:45;7.93;;;3.00;;
3068;SDS011;1545;51.728;8.796;2022-07-29T00:34:11;9.77;;;3.33;;
3068;SDS011;1545;51.728;8.796;2022-07-29T00:36:56;29.20;;;3.17;;
3068;SDS011;1545;51.728;8.796;2022-07-29T00:39:22;14.90;;;3.17;;
3068;SDS011;1545;51.728;8.796;2022-07-29T00:41:48;11.07;;;3.17;;
3068;SDS011;1545;51.728;8.796;2022-07-29T00:44:14;6.37;;;2.90;;
3068;SDS011;1545;51.728;8.796;2022-07-29T00:46:40;12.10;;;3.27;;
3068;SDS011;1545;51.728;8.796;2022-07-29T00:49:06;5.30;;;2.70;;
3068;SDS011;1545;51.728;8.796;2022-07-29T00:51:32;9.73;;;3.20;;
3068;SDS011;1545;51.728;8.796;2022-07-29T00:54:00;4.40;;;2.60;;
3068;SDS011;1545;51.728;8.796;2022-07-29T00:56:26;14.37;;;3.27;;
3068;SDS011;1545;51.728;8.796;2022-07-29T00:58:51;6.57;;;3.40;;
3068;SDS011;1545;51.728;8.796;2022-07-29T01:01:18;7.93;;;3.30;;
3068;SDS011;1545;51.728;8.796;2022-07-29T01:03:44;13.53;;;3.20;;
3068;SDS011;1545;51.728;8.796;2022-07-29T01:06:09;15.33;;;3.40;;
3068;SDS011;1545;51.728;8.796;2022-07-29T01:08:35;10.47;;;2.87;;
3068;SDS011;1545;51.728;8.796;2022-07-29T01:11:01;12.20;;;3.27;;
3068;SDS011;1545;51.728;8.796;2022-07-29T01:13:27;5.50;;;2.93;;
3068;SDS011;1545;51.728;8.796;2022-07-29T01:16:18;9.80;;;3.10;;
3068;SDS011;1545;51.728;8.796;2022-07-29T01:18:51;18.43;;;3.30;;
3068;SDS011;1545;51.728;8.796;2022-07-29T01:21:35;13.17;;;3.23;;
3068;SDS011;1545;51.728;8.796;2022-07-29T01:27:17;9.63;;;3.50;;
3068;SDS011;1545;51.728;8.796;2022-07-29T01:29:59;11.67;;;3.07;;
3068;SDS011;1545;51.728;8.796;2022-07-29T01:32:31;6.70;;;2.90;;
3068;SDS011;1545;51.728;8.796;2022-07-29T01:35:05;8.07;;;2.80;;
3068;SDS011;1545;51.728;8.796;2022-07-29T01:40:51;11.33;;;3.00;;
3068;SDS011;1545;51.728;8.796;2022-07-29T01:43:21;7.60;;;2.90;;
3068;SDS011;1545;51.728;8.796;2022-07-29T01:45:59;11.93;;;3.43;;
3068;SDS011;1545;51.728;8.796;2022-07-29T01:48:30;10.57;;;3.30;;
3068;SDS011;1545;51.728;8.796;2022-07-29T01:51:02;11.20;;;3.27;;
3068;SDS011;1545;51.728;8.796;2022-07-29T01:53:34;10.27;;;2.60;;
3068;SDS011;1545;51.728;8.796;2022-07-29T01:56:10;20.87;;;3.47;;
3068;SDS011;1545;51.728;8.796;2022-07-29T01:58:38;10.43;;;3.10;;
3068;SDS011;1545;51.728;8.796;2022-07-29T02:01:08;11.23;;;3.20;;
3068;SDS011;1545;51.728;8.796;2022-07-29T02:03:35;11.00;;;3.27;;
3068;SDS011;1545;51.728;8.796;2022-07-29T02:06:03;10.23;;;3.53;;
3068;SDS011;1545;51.728;8.796;2022-07-29T02:08:30;16.30;;;3.20;;
3068;SDS011;1545;51.728;8.796;2022-07-29T02:10:59;21.97;;;3.60;;
3068;SDS011;1545;51.728;8.796;2022-07-29T02:13:27;9.93;;;3.37;;
3068;SDS011;1545;51.728;8.796;2022-07-29T02:15:55;10.10;;;3.40;;
3068;SDS011;1545;51.728;8.796;2022-07-29T02:18:22;11.57;;;3.47;;
3068;SDS011;1545;51.728;8.796;2022-07-29T02:20:50;9.43;;;3.27;;
3068;SDS011;1545;51.728;8.796;2022-07-29T02:23:23;9.67;;;3.10;;
3068;SDS011;1545;51.728;8.796;2022-07-29T02:25:52;16.23;;;3.53;;
3068;SDS011;1545;51.728;8.796;2022-07-29T02:28:20;11.67;;;3.13;;
3068;SDS011;1545;51.728;8.796;2022-07-29T02:30:52;12.50;;;3.40;;
3068;SDS011;1545;51.728;8.796;2022-07-29T02:33:19;13.37;;;3.10;;
3068;SDS011;1545;51.728;8.796;2022-07-29T02:35:48;13.17;;;3.43;;
3068;SDS011;1545;51.728;8.796;2022-07-29T02:38:15;5.30;;;3.10;;
3068;SDS011;1545;51.728;8.796;2022-07-29T02:41:04;8.00;;;3.20;;
3068;SDS011;1545;51.728;8.796;2022-07-29T02:43:33;11.90;;;2.87;;
3068;SDS011;1545;51.728;8.796;2022-07-29T02:46:00;10.80;;;3.30;;
3068;SDS011;1545;51.728;8.796;2022-07-29T02:48:34;6.97;;;2.93;;
3068;SDS011;1545;51.728;8.796;2022-07-29T02:51:08;8.40;;;3.20;;
3068;SDS011;1545;51.728;8.796;2022-07-29T02:53:38;5.50;;;3.10;;
3068;SDS011;1545;51.728;8.796;2022-07-29T02:56:10;26.77;;;3.30;;
3068;SDS011;1545;51.728;8.796;2022-07-29T02:58:40;8.10;;;3.10;;
3068;SDS011;1545;51.728;8.796;2022-07-29T03:01:25;9.53;;;3.17;;
3068;SDS011;1545;51.728;8.796;2022-07-29T03:03:56;10.00;;;3.10;;
3068;SDS011;1545;51.728;8.796;2022-07-29T03:06:25;8.20;;;2.80;;
3068;SDS011;1545;51.728;8.796;2022-07-29T03:08:52;21.43;;;3.97;;
3068;SDS011;1545;51.728;8.796;2022-07-29T03:11:18;6.07;;;3.30;;
3068;SDS011;1545;51.728;8.796;2022-07-29T03:13:44;11.73;;;3.43;;
3068;SDS011;1545;51.728;8.796;2022-07-29T03:16:10;4.67;;;2.73;;
3068;SDS011;1545;51.728;8.796;2022-07-29T03:18:37;15.10;;;3.30;;
3068;SDS011;1545;51.728;8.796;2022-07-29T03:21:03;9.40;;;3.33;;
3068;SDS011;1545;51.728;8.796;2022-07-29T03:23:29;6.03;;;3.13;;
3068;SDS011;1545;51.728;8.796;2022-07-29T03:25:55;14.90;;;3.50;;
3068;SDS011;1545;51.728;8.796;2022-07-29T03:28:21;8.77;;;3.10;;
3068;SDS011;1545;51.728;8.796;2022-07-29T03:30:47;7.80;;;3.30;;
3068;SDS011;1545;51.728;8.796;2022-07-29T03:33:13;12.27;;;3.33;;
3068;SDS011;1545;51.728;8.796;2022-07-29T03:35:38;9.97;;;3.37;;
3068;SDS011;1545;51.728;8.796;2022-07-29T03:38:04;11.70;;;3.17;;
3068;SDS011;1545;51.728;8.796;2022-07-29T03:40:33;7.03;;;2.90;;
3068;SDS011;1545;51.728;8.796;2022-07-29T03:43:03;15.70;;;3.30;;
3068;SDS011;1545;51.728;8.796;2022-07-29T03:45:31;16.00;;;3.90;;
3068;SDS011;1545;51.728;8.796;2022-07-29T03:48:02;17.67;;;3.37;;
3068;SDS011;1545;51.728;8.796;2022-07-29T03:50:32;6.23;;;3.20;;
3068;SDS011;1545;51.728;8.796;2022-07-29T03:52:58;9.13;;;3.27;;
3068;SDS011;1545;51.728;8.796;2022-07-29T03:55:24;11.83;;;3.27;;
3068;SDS011;1545;51.728;8.796;2022-07-29T03:57:51;4.67;;;3.00;;
3068;SDS011;1545;51.728;8.796;2022-07-29T04:00:17;6.50;;;3.03;;
3068;SDS011;1545;51.728;8.796;2022-07-29T04:02:44;6.10;;;3.03;;
3068;SDS011;1545;51.728;8.796;2022-07-29T04:05:13;16.27;;;3.00;;
3068;SDS011;1545;51.728;8.796;2022-07-29T04:07:48;10.73;;;3.00;;
3068;SDS011;1545;51.728;8.796;2022-07-29T04:10:14;11.90;;;3.40;;
3068;SDS011;1545;51.728;8.796;2022-07-29T04:12:41;13.80;;;3.00;;
3068;SDS011;1545;51.728;8.796;2022-07-29T04:15:07;4.90;;;3.00;;
3068;SDS011;1545;51.728;8.796;2022-07-29T04:17:33;7.83;;;3.10;;
3068;SDS011;1545;51.728;8.796;2022-07-29T04:19:59;10.87;;;3.50;;
3068;SDS011;1545;51.728;8.796;2022-07-29T04:22:24;9.40;;;3.30;;
3068;SDS011;1545;51.728;8.796;2022-07-29T04:24:50;10.13;;;3.00;;
3068;SDS011;1545;51.728;8.796;2022-07-29T04:27:16;9.07;;;3.57;;
3068;SDS011;1545;51.728;8.796;2022-07-29T04:29:41;5.27;;;3.17;;
3068;SDS011;1545;51.728;8.796;2022-07-29T04:32:07;7.67;;;3.20;;
3068;SDS011;1545;51.728;8.796;2022-07-29T04:34:32;8.93;;;3.63;;
3068;SDS011;1545;51.728;8.796;2022-07-29T04:36:58;6.20;;;3.50;;
3068;SDS011;1545;51.728;8.796;2022-07-29T04:39:24;8.80;;;3.13;;
3068;SDS011;1545;51.728;8.796;2022-07-29T04:41:49;11.50;;;3.30;;
3068;SDS011;1545;51.728;8.796;2022-07-29T04:44:15;6.80;;;3.23;;
3068;SDS011;1545;51.728;8.796;2022-07-29T04:46:41;6.00;;;3.00;;
3068;SDS011;1545;51.728;8.796;2022-07-29T04:49:06;8.10;;;3.33;;
3068;SDS011;1545;51.728;8.796;2022-07-29T04:51:32;7.70;;;2.93;;
3068;SDS011;1545;51.728;8.796;2022-07-29T04:53:58;9.60;;;3.00;;
3068;SDS011;1545;51.728;8.796;2022-07-29T04:56:23;6.17;;;3.00;;
3068;SDS011;1545;51.728;8.796;2022-07-29T04:58:49;13.43;;;3.17;;
3068;SDS011;1545;51.728;8.796;2022-07-29T05:01:15;6.97;;;3.17;;
3068;SDS011;1545;51.728;8.796;2022-07-29T05:03:40;5.20;;;3.17;;
3068;SDS011;1545;51.728;8.796;2022-07-29T05:06:06;11.70;;;2.90;;
3068;SDS011;1545;51.728;8.796;2022-07-29T05:08:32;8.87;;;3.30;;
3068;SDS011;1545;51.728;8.796;2022-07-29T05:10:57;11.70;;;3.60;;
3068;SDS011;1545;51.728;8.796;2022-07-29T05:13:23;15.13;;;3.33;;
3068;SDS011;1545;51.728;8.796;2022-07-29T05:15:48;6.33;;;3.20;;
3068;SDS011;1545;51.728;8.796;2022-07-29T05:18:14;10.17;;;3.47;;
3068;SDS011;1545;51.728;8.796;2022-07-29T05:20:39;14.00;;;3.30;;
3068;SDS011;1545;51.728;8.796;2022-07-29T05:23:05;6.43;;;3.13;;
3068;SDS011;1545;51.728;8.796;2022-07-29T05:25:31;8.50;;;3.40;;
3068;SDS011;1545;51.728;8.796;2022-07-29T05:27:56;13.50;;;3.53;;
3068;SDS011;1545;51.728;8.796;2022-07-29T05:30:22;8.87;;;3.67;;
3068;SDS011;1545;51.728;8.796;2022-07-29T05:32:48;11.67;;;2.97;;
3068;SDS011;1545;51.728;8.796;2022-07-29T05:35:14;5.80;;;3.43;;
3068;SDS011;1545;51.728;8.796;2022-07-29T05:37:40;10.23;;;3.57;;
3068;SDS011;1545;51.728;8.796;2022-07-29T05:40:06;12.80;;;3.73;;
3068;SDS011;1545;51.728;8.796;2022-07-29T05:42:32;11.13;;;3.50;;
3068;SDS011;1545;51.728;8.796;2022-07-29T05:44:58;9.27;;;3.00;;
3068;SDS011;1545;51.728;8.796;2022-07-29T05:47:23;10.10;;;3.23;;
3068;SDS011;1545;51.728;8.796;2022-07-29T05:49:49;6.83;;;2.90;;
3068;SDS011;1545;51.728;8.796;2022-07-29T05:52:15;5.37;;;3.17;;
3068;SDS011;1545;51.728;8.796;2022-07-29T05:54:42;5.63;;;3.30;;
3068;SDS011;1545;51.728;8.796;2022-07-29T05:57:08;5.87;;;3.40;;
3068;SDS011;1545;51.728;8.796;2022-07-29T05:59:39;9.40;;;3.20;;
3068;SDS011;1545;51.728;8.796;2022-07-29T06:02:05;7.50;;;2.80;;
3068;SDS011;1545;51.728;8.796;2022-07-29T06:04:31;8.53;;;3.43;;
3068;SDS011;1545;51.728;8.796;2022-07-29T06:06:57;8.57;;;3.30;;
3068;SDS011;1545;51.728;8.796;2022-07-29T06:09:22;7.83;;;3.50;;
3068;SDS011;1545;51.728;8.796;2022-07-29T06:11:48;8.47;;;3.33;;
3068;SDS011;1545;51.728;8.796;2022-07-29T06:14:14;10.07;;;3.23;;
3068;SDS011;1545;51.728;8.796;2022-07-29T06:16:39;12.00;;;3.20;;
3068;SDS011;1545;51.728;8.796;2022-07-29T06:19:05;15.13;;;3.47;;
3068;SDS011;1545;51.728;8.796;2022-07-29T06:21:30;13.43;;;3.77;;
3068;SDS011;1545;51.728;8.796;2022-07-29T06:23:56;11.03;;;3.40;;
3068;SDS011;1545;51.728;8.796;2022-07-29T06:26:21;6.37;;;3.23;;
3068;SDS011;1545;51.728;8.796;2022-07-29T06:28:47;9.00;;;3.23;;
3068;SDS011;1545;51.728;8.796;2022-07-29T06:31:13;16.77;;;4.00;;
3068;SDS011;1545;51.728;8.796;2022-07-29T06:33:39;8.90;;;3.30;;
3068;SDS011;1545;51.728;8.796;2022-07-29T06:36:04;9.37;;;3.40;;
3068;SDS011;1545;51.728;8.796;2022-07-29T06:38:30;14.13;;;3.93;;
3068;SDS011;1545;51.728;8.796;2022-07-29T06:40:57;13.93;;;3.90;;
3068;SDS011;1545;51.728;8.796;2022-07-29T06:43:27;13.63;;;3.33;;
3068;SDS011;1545;51.728;8.796;2022-07-29T06:45:56;12.73;;;3.23;;
3068;SDS011;1545;51.728;8.796;2022-07-29T06:48:22;10.77;;;3.43;;
3068;SDS011;1545;51.728;8.796;2022-07-29T06:50:48;7.83;;;3.33;;
3068;SDS011;1545;51.728;8.796;2022-07-29T06:53:13;7.40;;;3.10;;
3068;SDS011;1545;51.728;8.796;2022-07-29T06:55:39;10.33;;;3.47;;
3068;SDS011;1545;51.728;8.796;2022-07-29T06:58:04;9.70;;;3.67;;
3068;SDS011;1545;51.728;8.796;2022-07-29T07:00:30;8.60;;;3.20;;
3068;SDS011;1545;51.728;8.796;2022-07-29T07:02:55;11.40;;;3.40;;
3068;SDS011;1545;51.728;8.796;2022-07-29T07:05:21;11.53;;;3.43;;
3068;SDS011;1545;51.728;8.796;2022-07-29T07:07:46;10.60;;;3.47;;
3068;SDS011;1545;51.728;8.796;2022-07-29T07:10:12;8.03;;;3.47;;
3068;SDS011;1545;51.728;8.796;2022-07-29T07:12:37;10.37;;;3.17;;
3068;SDS011;1545;51.728;8.796;2022-07-29T07:15:03;7.47;;;2.87;;
3068;SDS011;1545;51.728;8.796;2022-07-29T07:17:29;6.50;;;3.30;;
3068;SDS011;1545;51.728;8.796;2022-07-29T07:19:54;11.33;;;3.17;;
3068;SDS011;1545;51.728;8.796;2022-07-29T07:22:20;12.97;;;3.17;;
3068;SDS011;1545;51.728;8.796;2022-07-29T07:24:45;8.33;;;3.00;;
3068;SDS011;1545;51.728;8.796;2022-07-29T07:27:11;8.53;;;3.77;;
3068;SDS011;1545;51.728;8.796;2022-07-29T07:29:36;7.30;;;3.43;;
3068;SDS011;1545;51.728;8.796;2022-07-29T07:32:05;7.00;;;3.27;;
3068;SDS011;1545;51.728;8.796;2022-07-29T07:34:32;12.30;;;3.87;;
3068;SDS011;1545;51.728;8.796;2022-07-29T07:36:57;19.07;;;3.50;;
3068;SDS011;1545;51.728;8.796;2022-07-29T07:39:23;7.67;;;3.70;;
3068;SDS011;1545;51.728;8.796;2022-07-29T07:41:48;15.10;;;3.80;;
3068;SDS011;1545;51.728;8.796;2022-07-29T07:44:14;6.57;;;3.80;;
3068;SDS011;1545;51.728;8.796;2022-07-29T07:46:39;17.17;;;4.47;;
3068;SDS011;1545;51.728;8.796;2022-07-29T07:49:05;16.87;;;4.20;;
3068;SDS011;1545;51.728;8.796;2022-07-29T07:51:30;9.03;;;4.50;;
3068;SDS011;1545;51.728;8.796;2022-07-29T07:53:56;15.03;;;4.30;;
3068;SDS011;1545;51.728;8.796;2022-07-29T07:56:21;15.40;;;4.67;;
3068;SDS011;1545;51.728;8.796;2022-07-29T07:58:47;13.80;;;4.37;;
3068;SDS011;1545;51.728;8.796;2022-07-29T08:01:12;15.27;;;4.50;;
3068;SDS011;1545;51.728;8.796;2022-07-29T08:03:38;9.40;;;3.27;;
3068;SDS011;1545;51.728;8.796;2022-07-29T08:06:04;10.17;;;3.93;;
3068;SDS011;1545;51.728;8.796;2022-07-29T08:08:30;7.23;;;3.20;;
3068;SDS011;1545;51.728;8.796;2022-07-29T08:10:56;8.53;;;3.40;;
3068;SDS011;1545;51.728;8.796;2022-07-29T08:13:23;7.03;;;3.57;;
3068;SDS011;1545;51.728;8.796;2022-07-29T08:15:54;9.17;;;3.53;;
3068;SDS011;1545;51.728;8.796;2022-07-29T08:18:25;12.30;;;4.00;;
3068;SDS011;1545;51.728;8.796;2022-07-29T08:20:51;7.37;;;3.07;;
3068;SDS011;1545;51.728;8.796;2022-07-29T08:23:17;7.20;;;3.60;;
3068;SDS011;1545;51.728;8.796;2022-07-29T08:25:43;12.83;;;3.83;;
3068;SDS011;1545;51.728;8.796;2022-07-29T08:28:09;15.20;;;3.70;;
3068;SDS011;1545;51.728;8.796;2022-07-29T08:30:35;6.63;;;3.37;;
3068;SDS011;1545;51.728;8.796;2022-07-29T08:33:02;7.57;;;3.57;;
3068;SDS011;1545;51.728;8.796;2022-07-29T08:35:27;10.67;;;3.27;;
3068;SDS011;1545;51.728;8.796;2022-07-29T08:37:53;17.37;;;3.40;;
3068;SDS011;1545;51.728;8.796;2022-07-29T08:40:19;23.27;;;4.00;;
3068;SDS011;1545;51.728;8.796;2022-07-29T08:42:51;9.30;;;3.67;;
3068;SDS011;1545;51.728;8.796;2022-07-29T08:45:16;9.57;;;3.40;;
3068;SDS011;1545;51.728;8.796;2022-07-29T08:47:43;14.47;;;4.33;;
3068;SDS011;1545;51.728;8.796;2022-07-29T08:50:10;7.47;;;3.23;;
3068;SDS011;1545;51.728;8.796;2022-07-29T08:52:36;9.90;;;3.50;;
3068;SDS011;1545;51.728;8.796;2022-07-29T08:55:09;15.27;;;3.30;;
3068;SDS011;1545;51.728;8.796;2022-07-29T08:57:34;15.17;;;3.50;;
3068;SDS011;1545;51.728;8.796;2022-07-29T09:00:00;9.67;;;3.47;;
3068;SDS011;1545;51.728;8.796;2022-07-29T09:02:29;9.43;;;3.73;;
3068;SDS011;1545;51.728;8.796;2022-07-29T09:05:00;7.03;;;3.43;;
3068;SDS011;1545;51.728;8.796;2022-07-29T09:07:27;11.20;;;3.57;;
3068;SDS011;1545;51.728;8.796;2022-07-29T09:09:53;12.93;;;3.70;;
3068;SDS011;1545;51.728;8.796;2022-07-29T09:12:19;16.83;;;3.73;;
3068;SDS011;1545;51.728;8.796;2022-07-29T09:14:47;11.30;;;5.10;;
3068;SDS011;1545;51.728;8.796;2022-07-29T09:17:12;13.07;;;3.55;;
3068;SDS011;1545;51.728;8.796;2022-07-29T09:19:44;20.90;;;3.30;;
3068;SDS011;1545;51.728;8.796;2022-07-29T09:22:10;14.82;;;3.70;;
3068;SDS011;1545;51.728;8.796;2022-07-29T09:24:46;13.50;;;3.85;;
3068;SDS011;1545;51.728;8.796;2022-07-29T09:27:19;9.25;;;3.22;;
3068;SDS011;1545;51.728;8.796;2022-07-29T09:29:47;6.25;;;3.10;;
3068;SDS011;1545;51.728;8.796;2022-07-29T09:32:24;10.68;;;3.78;;
3068;SDS011;1545;51.728;8.796;2022-07-29T09:34:49;11.35;;;3.67;;
3068;SDS011;1545;51.728;8.796;2022-07-29T09:37:30;10.00;;;2.97;;
3068;SDS011;1545;51.728;8.796;2022-07-29T09:39:55;9.20;;;3.42;;
3068;SDS011;1545;51.728;8.796;2022-07-29T09:42:28;6.25;;;3.53;;
3068;SDS011;1545;51.728;8.796;2022-07-29T09:44:54;11.40;;;3.70;;
3068;SDS011;1545;51.728;8.796;2022-07-29T09:47:20;8.67;;;3.50;;
3068;SDS011;1545;51.728;8.796;2022-07-29T09:49:51;13.10;;;3.80;;
3068;SDS011;1545;51.728;8.796;2022-07-29T09:52:23;11.20;;;3.90;;
3068;SDS011;1545;51.728;8.796;2022-07-29T09:54:49;11.97;;;3.90;;
3068;SDS011;1545;51.728;8.796;2022-07-29T09:57:23;10.60;;;3.40;;
3068;SDS011;1545;51.728;8.796;2022-07-29T10:00:01;10.20;;;3.50;;
3068;SDS011;1545;51.728;8.796;2022-07-29T10:02:35;6.70;;;3.10;;
3068;SDS011;1545;51.728;8.796;2022-07-29T10:05:02;12.05;;;3.60;;
3068;SDS011;1545;51.728;8.796;2022-07-29T10:10:29;14.60;;;3.85;;
3068;SDS011;1545;51.728;8.796;2022-07-29T10:13:00;10.70;;;3.58;;
3068;SDS011;1545;51.728;8.796;2022-07-29T10:15:28;7.28;;;3.50;;
3068;SDS011;1545;51.728;8.796;2022-07-29T10:17:55;7.75;;;3.13;;
3068;SDS011;1545;51.728;8.796;2022-07-29T10:20:22;16.92;;;3.67;;
3068;SDS011;1545;51.728;8.796;2022-07-29T10:22:49;12.32;;;3.60;;
3068;SDS011;1545;51.728;8.796;2022-07-29T10:25:16;7.30;;;3.40;;
3068;SDS011;1545;51.728;8.796;2022-07-29T10:27:42;10.35;;;3.38;;
3068;SDS011;1545;51.728;8.796;2022-07-29T10:30:12;8.80;;;3.50;;
3068;SDS011;1545;51.728;8.796;2022-07-29T10:32:43;8.40;;;3.10;;
3068;SDS011;1545;51.728;8.796;2022-07-29T10:38:27;15.65;;;3.17;;
3068;SDS011;1545;51.728;8.796;2022-07-29T10:41:14;12.48;;;3.15;;
3068;SDS011;1545;51.728;8.796;2022-07-29T10:46:25;12.30;;;3.85;;
3068;SDS011;1545;51.728;8.796;2022-07-29T10:54:19;12.63;;;3.75;;
3068;SDS011;1545;51.728;8.796;2022-07-29T10:59:57;12.40;;;3.78;;
3068;SDS011;1545;51.728;8.796;2022-07-29T11:02:40;16.23;;;4.10;;
3068;SDS011;1545;51.728;8.796;2022-07-29T11:05:11;8.90;;;3.53;;
3068;SDS011;1545;51.728;8.796;2022-07-29T11:10:36;8.52;;;4.03;;
3068;SDS011;1545;51.728;8.796;2022-07-29T11:13:02;11.30;;;4.20;;
3068;SDS011;1545;51.728;8.796;2022-07-29T11:15:27;10.50;;;3.80;;
3068;SDS011;1545;51.728;8.796;2022-07-29T11:23:26;10.57;;;4.17;;
3068;SDS011;1545;51.728;8.796;2022-07-29T11:28:34;11.83;;;4.00;;
3068;SDS011;1545;51.728;8.796;2022-07-29T11:31:07;8.43;;;4.00;;
3068;SDS011;1545;51.728;8.796;2022-07-29T11:33:35;13.93;;;4.53;;
3068;SDS011;1545;51.728;8.796;2022-07-29T11:38:34;9.57;;;3.93;;
3068;SDS011;1545;51.728;8.796;2022-07-29T11:41:19;13.98;;;4.00;;
3068;SDS011;1545;51.728;8.796;2022-07-29T11:43:52;11.05;;;3.58;;
3068;SDS011;1545;51.728;8.796;2022-07-29T11:49:18;11.38;;;4.00;;
3068;SDS011;1545;51.728;8.796;2022-07-29T11:51:54;8.70;;;3.95;;
3068;SDS011;1545;51.728;8.796;2022-07-29T11:54:25;6.45;;;3.95;;
3068;SDS011;1545;51.728;8.796;2022-07-29T11:56:57;8.50;;;3.88;;
3068;SDS011;1545;51.728;8.796;2022-07-29T11:59:23;8.00;;;3.67;;
3068;SDS011;1545;51.728;8.796;2022-07-29T12:01:56;6.93;;;3.72;;
3068;SDS011;1545;51.728;8.796;2022-07-29T12:04:23;8.43;;;4.07;;
3068;SDS011;1545;51.728;8.796;2022-07-29T12:06:49;10.18;;;4.20;;
3068;SDS011;1545;51.728;8.796;2022-07-29T12:09:16;7.45;;;4.03;;
3068;SDS011;1545;51.728;8.796;2022-07-29T12:11:42;13.75;;;4.18;;
3068;SDS011;1545;51.728;8.796;2022-07-29T12:14:08;11.13;;;4.13;;
3068;SDS011;1545;51.728;8.796;2022-07-29T12:16:36;11.00;;;4.03;;
3068;SDS011;1545;51.728;8.796;2022-07-29T12:19:03;8.73;;;4.45;;
3068;SDS011;1545;51.728;8.796;2022-07-29T12:21:35;16.30;;;4.13;;
3068;SDS011;1545;51.728;8.796;2022-07-29T12:24:11;9.52;;;4.10;;
3068;SDS011;1545;51.728;8.796;2022-07-29T12:26:48;9.82;;;4.18;;
3068;SDS011;1545;51.728;8.796;2022-07-29T12:29:17;11.75;;;4.07;;
3068;SDS011;1545;51.728;8.796;2022-07-29T12:31:44;8.00;;;4.25;;
3068;SDS011;1545;51.728;8.796;2022-07-29T12:34:11;12.80;;;4.30;;
3068;SDS011;1545;51.728;8.796;2022-07-29T12:36:38;11.38;;;4.00;;
3068;SDS011;1545;51.728;8.796;2022-07-29T12:39:04;9.93;;;4.50;;
3068;SDS011;1545;51.728;8.796;2022-07-29T12:41:30;9.88;;;4.45;;
3068;SDS011;1545;51.728;8.796;2022-07-29T12:43:55;6.27;;;4.10;;
3068;SDS011;1545;51.728;8.796;2022-07-29T12:46:21;7.63;;;4.13;;
3068;SDS011;1545;51.728;8.796;2022-07-29T12:48:50;13.43;;;4.00;;
3068;SDS011;1545;51.728;8.796;2022-07-29T12:51:25;25.98;;;5.20;;
3068;SDS011;1545;51.728;8.796;2022-07-29T12:56:33;10.77;;;4.53;;
3068;SDS011;1545;51.728;8.796;2022-07-29T12:58:59;14.75;;;4.28;;
3068;SDS011;1545;51.728;8.796;2022-07-29T13:01:24;9.80;;;4.57;;
3068;SDS011;1545;51.728;8.796;2022-07-29T13:03:55;5.93;;;4.35;;
3068;SDS011;1545;51.728;8.796;2022-07-29T13:06:28;18.50;;;5.00;;
3068;SDS011;1545;51.728;8.796;2022-07-29T13:09:11;9.20;;;4.40;;
3068;SDS011;1545;51.728;8.796;2022-07-29T13:11:39;12.45;;;4.43;;
3068;SDS011;1545;51.728;8.796;2022-07-29T13:14:13;11.60;;;4.57;;
3068;SDS011;1545;51.728;8.796;2022-07-29T13:17:07;22.30;;;5.35;;
3068;SDS011;1545;51.728;8.796;2022-07-29T13:22:10;17.13;;;4.55;;
3068;SDS011;1545;51.728;8.796;2022-07-29T13:27:23;17.60;;;4.75;;
3068;SDS011;1545;51.728;8.796;2022-07-29T13:29:51;8.07;;;4.85;;
3068;SDS011;1545;51.728;8.796;2022-07-29T13:32:18;6.10;;;4.00;;
3068;SDS011;1545;51.728;8.796;2022-07-29T13:34:44;8.60;;;3.95;;
3068;SDS011;1545;51.728;8.796;2022-07-29T13:37:10;9.55;;;4.70;;
3068;SDS011;1545;51.728;8.796;2022-07-29T13:39:35;11.68;;;4.45;;
3068;SDS011;1545;51.728;8.796;2022-07-29T13:42:02;10.35;;;4.85;;
3068;SDS011;1545;51.728;8.796;2022-07-29T13:44:28;8.00;;;4.90;;
3068;SDS011;1545;51.728;8.796;2022-07-29T13:46:54;12.85;;;4.40;;
3068;SDS011;1545;51.728;8.796;2022-07-29T13:49:19;18.20;;;4.60;;
3068;SDS011;1545;51.728;8.796;2022-07-29T13:51:45;9.18;;;4.95;;
3068;SDS011;1545;51.728;8.796;2022-07-29T13:54:10;20.25;;;5.07;;
3068;SDS011;1545;51.728;8.796;2022-07-29T13:56:36;16.77;;;4.82;;
3068;SDS011;1545;51.728;8.796;2022-07-29T13:59:01;9.40;;;4.60;;
3068;SDS011;1545;51.728;8.796;2022-07-29T14:01:27;10.40;;;4.30;;
3068;SDS011;1545;51.728;8.796;2022-07-29T14:03:55;13.40;;;4.68;;
3068;SDS011;1545;51.728;8.796;2022-07-29T14:06:20;11.25;;;4.93;;
3068;SDS011;1545;51.728;8.796;2022-07-29T14:08:46;13.15;;;4.68;;
3068;SDS011;1545;51.728;8.796;2022-07-29T14:11:11;10.25;;;4.60;;
3068;SDS011;1545;51.728;8.796;2022-07-29T14:13:37;9.80;;;4.18;;
3068;SDS011;1545;51.728;8.796;2022-07-29T14:16:02;15.52;;;4.90;;
3068;SDS011;1545;51.728;8.796;2022-07-29T14:18:28;11.50;;;4.80;;
3068;SDS011;1545;51.728;8.796;2022-07-29T14:20:53;11.80;;;4.63;;
3068;SDS011;1545;51.728;8.796;2022-07-29T14:23:19;11.48;;;4.57;;
3068;SDS011;1545;51.728;8.796;2022-07-29T14:25:44;11.32;;;4.55;;
3068;SDS011;1545;51.728;8.796;2022-07-29T14:28:10;12.43;;;5.07;;
3068;SDS011;1545;51.728;8.796;2022-07-29T14:30:35;17.17;;;5.03;;
3068;SDS011;1545;51.728;8.796;2022-07-29T14:33:01;11.75;;;4.80;;
3068;SDS011;1545;51.728;8.796;2022-07-29T14:35:26;16.05;;;4.88;;
3068;SDS011;1545;51.728;8.796;2022-07-29T14:37:52;18.08;;;5.45;;
3068;SDS011;1545;51.728;8.796;2022-07-29T14:40:18;15.13;;;5.18;;
3068;SDS011;1545;51.728;8.796;2022-07-29T14:42:43;18.42;;;5.43;;
3068;SDS011;1545;51.728;8.796;2022-07-29T14:45:09;7.85;;;4.80;;
3068;SDS011;1545;51.728;8.796;2022-07-29T14:47:35;15.00;;;5.18;;
3068;SDS011;1545;51.728;8.796;2022-07-29T14:50:02;12.60;;;5.18;;
3068;SDS011;1545;51.728;8.796;2022-07-29T14:52:28;14.30;;;5.43;;
3068;SDS011;1545;51.728;8.796;2022-07-29T14:54:55;14.40;;;5.28;;
3068;SDS011;1545;51.728;8.796;2022-07-29T14:57:21;8.35;;;5.22;;
3068;SDS011;1545;51.728;8.796;2022-07-29T14:59:46;20.30;;;5.85;;
3068;SDS011;1545;51.728;8.796;2022-07-29T15:02:12;10.35;;;4.85;;
3068;SDS011;1545;51.728;8.796;2022-07-29T15:04:37;9.63;;;5.18;;
3068;SDS011;1545;51.728;8.796;2022-07-29T15:07:03;12.52;;;5.10;;
3068;SDS011;1545;51.728;8.796;2022-07-29T15:09:29;14.57;;;5.55;;
3068;SDS011;1545;51.728;8.796;2022-07-29T15:11:54;13.27;;;5.57;;
3068;SDS011;1545;51.728;8.796;2022-07-29T15:14:20;9.55;;;5.47;;
3068;SDS011;1545;51.728;8.796;2022-07-29T15:16:46;9.20;;;5.20;;
3068;SDS011;1545;51.728;8.796;2022-07-29T15:19:11;8.75;;;4.95;;
3068;SDS011;1545;51.728;8.796;2022-07-29T15:21:37;14.55;;;5.35;;
3068;SDS011;1545;51.728;8.796;2022-07-29T15:24:03;19.05;;;5.60;;
3068;SDS011;1545;51.728;8.796;2022-07-29T15:26:28;6.63;;;5.22;;
3068;SDS011;1545;51.728;8.796;2022-07-29T15:28:54;11.98;;;5.40;;
3068;SDS011;1545;51.728;8.796;2022-07-29T15:31:22;11.43;;;5.20;;
3068;SDS011;1545;51.728;8.796;2022-07-29T15:33:48;18.92;;;5.22;;
3068;SDS011;1545;51.728;8.796;2022-07-29T15:36:13;12.23;;;5.50;;
3068;SDS011;1545;51.728;8.796;2022-07-29T15:38:39;8.43;;;5.57;;
3068;SDS011;1545;51.728;8.796;2022-07-29T15:41:05;9.05;;;5.55;;
3068;SDS011;1545;51.728;8.796;2022-07-29T15:43:31;13.80;;;5.78;;
3068;SDS011;1545;51.728;8.796;2022-07-29T15:45:57;16.23;;;5.25;;
3068;SDS011;1545;51.728;8.796;2022-07-29T15:48:41;12.63;;;5.65;;
3068;SDS011;1545;51.728;8.796;2022-07-29T15:51:07;16.65;;;5.85;;
3068;SDS011;1545;51.728;8.796;2022-07-29T15:53:33;6.85;;;5.00;;
3068;SDS011;1545;51.728;8.796;2022-07-29T15:55:58;14.93;;;6.13;;
3068;SDS011;1545;51.728;8.796;2022-07-29T15:58:24;10.57;;;5.43;;